Time;durP1;ratioP1;P1;durP2;ratioP2;P2;SDS_P1;SDS_P2;PMS_P1;PMS_P2;Temp;Humidity;BMP_temperature;BMP_pressure;BME280_temperature;BME280_humidity;BME280_pressure;Samples;Min_cycle;Max_cycle;Signal;HPM_P1;HPM_P2
2023/05/03 00:00:54;;;;;;;6.50;4.22;;;10.90;99.90;;;;;;4927483;29;20152;-73
2023/05/03 05:02:13;;;;;;;15.75;8.07;;;9.30;99.90;;;;;;5594818;23;20207;-73
2023/05/03 05:04:39;;;;;;;11.82;7.55;;;9.40;99.90;;;;;;4902241;29;20024;-73
2023/05/03 05:07:05;;;;;;;13.52;7.90;;;9.50;99.90;;;;;;4912447;29;20023;-73
2023/05/03 05:09:32;;;;;;;11.68;7.30;;;9.60;99.90;;;;;;4907526;29;20034;-78
2023/05/03 05:12:02;;;;;;;13.80;7.38;;;9.70;99.90;;;;;;4895882;29;20033;-74
2023/05/03 05:14:33;;;;;;;13.55;7.60;;;9.70;99.90;;;;;;4890873;29;20063;-73
2023/05/03 05:16:59;;;;;;;12.15;7.45;;;9.80;99.90;;;;;;4905777;29;20107;-72
2023/05/03 05:19:25;;;;;;;13.00;7.50;;;9.80;99.90;;;;;;4894490;29;20048;-72
2023/05/03 05:21:51;;;;;;;15.52;8.07;;;9.80;99.90;;;;;;4919179;29;20051;-72
2023/05/03 05:24:18;;;;;;;13.75;8.13;;;9.70;99.90;;;;;;4890444;29;20310;-72
2023/05/03 05:26:45;;;;;;;14.35;8.13;;;9.70;99.90;;;;;;4902258;29;20120;-72
2023/05/03 05:29:12;;;;;;;17.65;8.80;;;9.70;99.90;;;;;;4896980;29;20028;-71
2023/05/03 05:31:38;;;;;;;13.93;7.70;;;9.70;99.90;;;;;;4927701;29;20091;-72
2023/05/03 05:34:06;;;;;;;11.57;8.37;;;9.70;99.90;;;;;;4902915;29;20195;-72
2023/05/03 05:36:31;;;;;;;12.55;7.93;;;9.60;99.90;;;;;;4920794;29;20047;-72
2023/05/03 05:38:58;;;;;;;12.73;8.30;;;9.60;99.90;;;;;;4912376;29;20026;-73
2023/05/03 05:41:25;;;;;;;15.80;8.20;;;9.70;99.90;;;;;;4912061;29;20044;-73
2023/05/03 05:43:50;;;;;;;13.35;8.45;;;9.80;99.90;;;;;;4903022;29;20051;-72
2023/05/03 05:46:19;;;;;;;13.27;7.75;;;9.80;99.90;;;;;;4912374;29;20035;-72
2023/05/03 05:48:46;;;;;;;11.52;7.97;;;9.90;99.90;;;;;;4912072;29;20032;-72
2023/05/03 05:51:12;;;;;;;16.83;8.82;;;9.90;99.90;;;;;;4912757;29;20066;-72
2023/05/03 05:53:37;;;;;;;17.90;8.43;;;10.10;99.90;;;;;;4912321;29;20178;-74
2023/05/03 05:56:05;;;;;;;14.68;8.40;;;10.10;99.90;;;;;;4929118;29;20038;-73
2023/05/03 05:58:32;;;;;;;13.57;8.75;;;10.20;99.90;;;;;;4928312;29;20091;-71
2023/05/03 06:01:00;;;;;;;15.40;8.38;;;10.30;99.90;;;;;;4906607;29;20318;-71
2023/05/03 06:03:28;;;;;;;13.75;8.30;;;10.30;99.90;;;;;;4911805;29;20047;-72
2023/05/03 06:05:54;;;;;;;15.27;8.70;;;10.30;99.90;;;;;;4911655;29;20084;-72
2023/05/03 06:08:19;;;;;;;13.52;8.77;;;10.40;99.90;;;;;;4929383;29;20267;-73
2023/05/03 06:10:45;;;;;;;14.15;8.48;;;10.40;99.90;;;;;;4908631;29;20063;-74
2023/05/03 06:13:11;;;;;;;15.20;8.70;;;10.40;99.90;;;;;;4923130;29;20044;-73
2023/05/03 06:15:37;;;;;;;13.90;7.78;;;10.50;99.90;;;;;;4910239;29;20286;-73
2023/05/03 06:18:03;;;;;;;17.60;8.60;;;10.60;99.90;;;;;;4909799;29;20044;-73
2023/05/03 06:20:29;;;;;;;15.73;9.00;;;10.70;99.90;;;;;;4910340;29;20047;-73
2023/05/03 06:22:55;;;;;;;14.40;7.80;;;10.80;99.90;;;;;;4892788;29;20047;-74
2023/05/03 06:25:21;;;;;;;14.07;8.05;;;10.80;99.90;;;;;;4913517;29;20032;-71
2023/05/03 06:27:49;;;;;;;16.40;8.25;;;10.90;99.90;;;;;;4912355;29;20084;-70
2023/05/03 06:30:17;;;;;;;13.20;8.43;;;11.00;99.90;;;;;;4912219;29;20039;-72
2023/05/03 06:32:46;;;;;;;14.88;8.55;;;11.00;99.90;;;;;;4908619;29;21257;-70
2023/05/03 06:35:12;;;;;;;12.05;8.27;;;11.10;99.90;;;;;;4909976;29;20028;-69
2023/05/03 06:37:39;;;;;;;16.20;9.75;;;11.10;99.90;;;;;;4892792;29;20030;-70
2023/05/03 06:40:06;;;;;;;14.90;7.65;;;11.20;99.90;;;;;;4909467;29;20033;-71
2023/05/03 06:42:32;;;;;;;15.55;8.82;;;11.30;99.90;;;;;;4908722;29;20060;-69
2023/05/03 06:45:10;;;;;;;14.55;9.00;;;11.30;99.90;;;;;;4892829;29;20298;-70
2023/05/03 06:47:38;;;;;;;12.00;7.72;;;11.40;99.90;;;;;;4908352;29;20108;-70
2023/05/03 06:50:04;;;;;;;16.65;8.20;;;11.60;99.90;;;;;;4892080;29;20068;-69
2023/05/03 06:52:31;;;;;;;13.38;8.55;;;11.80;99.90;;;;;;4908012;29;20038;-70
2023/05/03 06:55:00;;;;;;;14.55;8.35;;;12.00;99.90;;;;;;4908559;29;20056;-77
2023/05/03 06:57:25;;;;;;;11.05;7.90;;;12.30;99.90;;;;;;4914622;29;20032;-70
2023/05/03 06:59:51;;;;;;;11.27;7.72;;;12.60;99.90;;;;;;4927716;29;20028;-71
2023/05/03 07:02:18;;;;;;;13.10;7.53;;;12.70;99.90;;;;;;4927577;29;20048;-71
2023/05/03 07:04:43;;;;;;;12.57;7.63;;;12.70;99.90;;;;;;4910646;29;20028;-69
2023/05/03 07:07:09;;;;;;;12.65;7.95;;;12.90;99.90;;;;;;4927856;29;20083;-74
2023/05/03 07:09:35;;;;;;;12.38;7.57;;;12.90;99.90;;;;;;4923661;29;20017;-74
2023/05/03 07:12:02;;;;;;;11.25;6.55;;;12.80;99.90;;;;;;4900812;29;20040;-71
2023/05/03 07:14:28;;;;;;;14.25;7.75;;;12.90;99.90;;;;;;4909899;29;20032;-74
2023/05/03 07:16:53;;;;;;;13.32;7.93;;;12.80;99.90;;;;;;4908641;29;20133;-74
2023/05/03 07:19:19;;;;;;;12.63;7.90;;;12.80;99.90;;;;;;4922899;29;20027;-73
2023/05/03 07:21:45;;;;;;;11.20;6.75;;;12.80;99.90;;;;;;4908374;29;20043;-73
2023/05/03 07:24:11;;;;;;;13.20;6.95;;;12.90;99.90;;;;;;4908842;29;20033;-74
2023/05/03 07:26:37;;;;;;;13.25;7.18;;;13.00;99.90;;;;;;4909056;29;20099;-70
2023/05/03 07:29:03;;;;;;;11.80;7.43;;;13.00;99.90;;;;;;4908028;29;20106;-71
2023/05/03 07:31:29;;;;;;;11.77;6.70;;;13.00;99.90;;;;;;4915049;29;20036;-68
2023/05/03 07:33:55;;;;;;;12.90;8.02;;;13.10;99.90;;;;;;4916418;29;20028;-70
2023/05/03 07:36:21;;;;;;;13.02;7.55;;;13.30;99.90;;;;;;4926512;29;20040;-69
2023/05/03 07:38:46;;;;;;;10.68;6.90;;;13.40;99.90;;;;;;4927098;29;20063;-69
2023/05/03 07:41:12;;;;;;;9.98;6.90;;;13.40;99.90;;;;;;4927470;29;20040;-69
2023/05/03 07:43:38;;;;;;;10.50;6.82;;;13.40;99.90;;;;;;4927389;29;20024;-69
2023/05/03 07:46:03;;;;;;;12.88;6.90;;;13.40;99.90;;;;;;4926821;29;20036;-69
2023/05/03 07:48:29;;;;;;;10.48;6.72;;;13.60;99.90;;;;;;4927307;29;20310;-70
2023/05/03 07:50:55;;;;;;;12.40;6.50;;;13.70;99.90;;;;;;4926393;29;20036;-72
2023/05/03 07:53:20;;;;;;;10.45;6.40;;;13.80;99.90;;;;;;4927458;29;20095;-71
2023/05/03 07:55:46;;;;;;;13.13;7.78;;;13.80;99.90;;;;;;4926588;29;20363;-72
2023/05/03 07:58:12;;;;;;;14.07;6.95;;;13.90;99.90;;;;;;4927130;29;20239;-71
2023/05/03 08:00:37;;;;;;;10.02;6.93;;;13.90;99.90;;;;;;4926882;29;20040;-70
2023/05/03 08:03:04;;;;;;;11.45;6.55;;;14.00;99.90;;;;;;4935496;29;20086;-70
2023/05/03 08:05:30;;;;;;;10.13;7.22;;;13.90;99.90;;;;;;4945859;29;20081;-71
2023/05/03 08:07:56;;;;;;;16.17;7.20;;;14.00;99.90;;;;;;4945661;29;20059;-70
2023/05/03 08:10:22;;;;;;;9.15;6.25;;;14.10;99.90;;;;;;4946009;29;20043;-71
2023/05/03 08:12:48;;;;;;;9.25;6.20;;;14.20;99.90;;;;;;4930140;29;20472;-70
2023/05/03 08:15:14;;;;;;;13.50;7.25;;;14.40;99.90;;;;;;4926561;29;20032;-70
2023/05/03 08:17:44;;;;;;;12.68;7.45;;;14.70;99.90;;;;;;4926626;29;20044;-70
2023/05/03 08:20:11;;;;;;;9.88;6.80;;;14.60;99.90;;;;;;4926729;29;20056;-72
2023/05/03 08:22:40;;;;;;;10.48;7.07;;;14.70;99.90;;;;;;4926733;29;20048;-70
2023/05/03 08:25:06;;;;;;;8.95;5.30;;;14.70;99.90;;;;;;4909578;29;20160;-69
2023/05/03 08:27:32;;;;;;;8.45;5.90;;;14.70;99.90;;;;;;4926535;29;20142;-69
2023/05/03 08:29:59;;;;;;;10.85;7.05;;;14.90;99.90;;;;;;4926098;29;20039;-69
2023/05/03 08:32:25;;;;;;;16.80;9.00;;;15.20;99.90;;;;;;4909772;29;20103;-69
2023/05/03 08:34:52;;;;;;;14.60;7.43;;;15.40;99.40;;;;;;4938571;29;20318;-70
2023/05/03 08:37:17;;;;;;;10.57;6.63;;;15.50;99.40;;;;;;4926756;29;20063;-69
2023/05/03 08:39:43;;;;;;;9.48;6.95;;;15.70;99.20;;;;;;4926803;29;20369;-69
2023/05/03 08:42:09;;;;;;;9.82;6.00;;;15.70;98.60;;;;;;4925964;29;20040;-70
2023/05/03 08:44:44;;;;;;;11.65;6.93;;;15.70;98.70;;;;;;4930004;29;20058;-70
2023/05/03 08:47:10;;;;;;;7.95;6.40;;;15.90;98.60;;;;;;4934080;29;20040;-70
2023/05/03 08:49:38;;;;;;;11.35;7.75;;;15.90;98.00;;;;;;4926602;29;20094;-70
2023/05/03 08:52:05;;;;;;;10.57;6.63;;;15.80;98.00;;;;;;4926302;29;20036;-70
2023/05/03 08:54:30;;;;;;;8.25;5.78;;;15.70;97.60;;;;;;4926452;29;20095;-70
2023/05/03 08:56:56;;;;;;;10.13;6.50;;;15.90;98.00;;;;;;4935845;29;20036;-71
2023/05/03 08:59:23;;;;;;;9.80;6.05;;;16.00;97.60;;;;;;4945089;29;20042;-71
2023/05/03 09:01:49;;;;;;;8.10;5.72;;;16.20;97.70;;;;;;4944452;29;20052;-69
2023/05/03 09:04:16;;;;;;;7.68;5.40;;;16.20;97.40;;;;;;4945519;29;20190;-71
2023/05/03 09:06:41;;;;;;;7.57;5.22;;;16.30;97.30;;;;;;4948590;29;20039;-71
2023/05/03 09:09:07;;;;;;;7.22;5.25;;;16.20;97.00;;;;;;4948710;29;20329;-69
2023/05/03 09:11:34;;;;;;;8.00;5.40;;;16.30;97.00;;;;;;4942626;29;20348;-70
2023/05/03 09:14:11;;;;;;;8.70;5.57;;;16.40;97.00;;;;;;4942024;29;20050;-69
2023/05/03 09:16:39;;;;;;;10.18;5.72;;;16.70;96.70;;;;;;4930025;29;20047;-70
2023/05/03 09:19:08;;;;;;;8.80;5.50;;;16.70;96.20;;;;;;4929042;29;20270;-70
2023/05/03 09:21:34;;;;;;;;;;;17.10;95.90;;;;;;4930664;29;20036;-70
2023/05/03 09:24:02;;;;;;;9.05;5.43;;;17.30;95.10;;;;;;4929393;29;19907;-70
2023/05/03 09:26:33;;;;;;;7.22;4.93;;;17.70;95.00;;;;;;4929548;29;20078;-71
2023/05/03 09:29:03;;;;;;;7.10;4.97;;;18.20;94.30;;;;;;4929517;29;20047;-71
2023/05/03 09:31:30;;;;;;;9.48;4.90;;;18.30;93.60;;;;;;4929838;29;20044;-71
2023/05/03 09:33:57;;;;;;;8.63;5.40;;;18.20;93.10;;;;;;4940172;29;20028;-70
2023/05/03 09:36:24;;;;;;;7.60;5.00;;;18.20;93.00;;;;;;4930398;29;20091;-72
2023/05/03 09:38:51;;;;;;;9.90;4.60;;;18.20;92.90;;;;;;4929236;29;20040;-70
2023/05/03 09:41:30;;;;;;;10.70;6.00;;;18.20;93.10;;;;;;4929295;29;20088;-74
2023/05/03 09:44:01;;;;;;;7.75;5.03;;;18.30;92.70;;;;;;4928854;29;20099;-72
2023/05/03 09:46:29;;;;;;;7.53;5.10;;;18.40;92.70;;;;;;4929294;29;20048;-71
2023/05/03 09:48:56;;;;;;;8.75;5.20;;;18.80;92.60;;;;;;4929114;29;20075;-72
2023/05/03 09:51:25;;;;;;;8.85;5.13;;;18.90;92.30;;;;;;4929457;29;20369;-71
2023/05/03 09:53:52;;;;;;;7.35;5.55;;;18.80;91.50;;;;;;4929071;29;20040;-70
2023/05/03 09:56:19;;;;;;;6.80;5.03;;;18.70;92.20;;;;;;4934126;29;20031;-72
2023/05/03 09:58:46;;;;;;;8.60;5.40;;;18.70;92.20;;;;;;4947540;29;20036;-69
2023/05/03 10:01:13;;;;;;;8.45;5.38;;;18.80;92.20;;;;;;4947805;29;20082;-70
2023/05/03 10:03:47;;;;;;;8.88;5.53;;;18.50;91.90;;;;;;4947723;29;20051;-75
2023/05/03 10:06:35;;;;;;;6.45;4.70;;;18.50;92.20;;;;;;4947971;29;20067;-75
2023/05/03 10:09:23;;;;;;;8.15;4.88;;;18.50;91.60;;;;;;4947665;29;20348;-76
2023/05/03 10:12:00;;;;;;;9.98;5.25;;;18.50;91.90;;;;;;4940282;29;20043;-70
2023/05/03 10:14:27;;;;;;;7.15;4.93;;;18.70;91.90;;;;;;4928741;29;20032;-70
2023/05/03 10:17:01;;;;;;;7.35;4.53;;;18.70;91.40;;;;;;4927243;29;20029;-68
2023/05/03 10:19:30;;;;;;;8.02;4.57;;;18.70;91.20;;;;;;4929145;29;20044;-70
2023/05/03 10:21:58;;;;;;;;;;;18.60;90.80;;;;;;4928896;29;20040;-70
2023/05/03 10:24:24;;;;;;;8.60;5.43;;;18.40;90.90;;;;;;4928982;29;19910;-69
2023/05/03 10:26:50;;;;;;;8.70;5.15;;;18.30;91.10;;;;;;4911270;29;20043;-70
2023/05/03 10:29:44;;;;;;;8.52;5.85;;;18.30;91.20;;;;;;4928680;29;20047;-68
2023/05/03 10:32:30;;;;;;;8.40;5.30;;;18.30;91.40;;;;;;4928451;29;20107;-69
2023/05/03 10:35:02;;;;;;;6.45;4.47;;;18.60;90.90;;;;;;4940538;29;20042;-70
2023/05/03 10:37:28;;;;;;;9.88;6.00;;;18.70;90.40;;;;;;4928351;29;20047;-69
2023/05/03 10:40:15;;;;;;;8.45;5.10;;;18.90;90.50;;;;;;4928237;29;20083;-70
2023/05/03 10:42:53;;;;;;;8.85;4.75;;;18.90;89.50;;;;;;4937130;29;20250;-69
2023/05/03 10:45:30;;;;;;;6.03;4.18;;;19.00;87.70;;;;;;4930131;29;20083;-70
2023/05/03 10:48:09;;;;;;;7.78;4.85;;;19.00;88.00;;;;;;4930066;29;20040;-69
2023/05/03 10:50:36;;;;;;;8.55;4.90;;;19.30;88.70;;;;;;4916912;29;20059;-71
2023/05/03 10:53:01;;;;;;;11.07;7.40;;;19.30;88.40;;;;;;4935933;29;20249;-69
2023/05/03 10:55:27;;;;;;;7.32;4.72;;;19.20;89.30;;;;;;4928052;29;20028;-69
2023/05/03 10:57:57;;;;;;;9.00;5.78;;;19.10;89.70;;;;;;4934904;29;20040;-70
2023/05/03 11:00:32;;;;;;;6.45;4.15;;;19.30;88.20;;;;;;4938163;29;20039;-69
2023/05/03 11:03:10;;;;;;;5.95;4.30;;;19.50;87.90;;;;;;4927267;29;20337;-69
2023/05/03 11:05:37;;;;;;;7.70;4.43;;;19.40;87.60;;;;;;4928924;29;20040;-69
2023/05/03 11:08:20;;;;;;;7.38;4.75;;;19.40;86.80;;;;;;4935879;29;20094;-70
2023/05/03 11:10:55;;;;;;;7.78;4.22;;;19.60;86.40;;;;;;4937519;29;20091;-70
2023/05/03 11:13:21;;;;;;;7.00;4.18;;;19.90;85.50;;;;;;4927991;29;20043;-70
2023/05/03 11:15:47;;;;;;;6.82;4.22;;;20.50;84.70;;;;;;4935673;29;20032;-69
2023/05/03 11:18:13;;;;;;;7.60;4.43;;;20.80;83.60;;;;;;4932493;29;20313;-72
2023/05/03 11:20:39;;;;;;;9.93;5.35;;;21.30;83.30;;;;;;4937608;29;20356;-70
2023/05/03 11:23:06;;;;;;;10.40;4.18;;;21.70;81.50;;;;;;4931967;29;20063;-68
2023/05/03 11:25:32;;;;;;;6.22;4.10;;;22.10;78.70;;;;;;4927428;29;20044;-69
2023/05/03 11:28:05;;;;;;;4.90;3.50;;;22.50;77.20;;;;;;4926769;29;20032;-69
2023/05/03 11:30:33;;;;;;;4.57;3.22;;;22.90;75.70;;;;;;4927331;29;20040;-69
2023/05/03 11:33:00;;;;;;;6.90;4.97;;;23.70;73.50;;;;;;4930518;29;20038;-70
2023/05/03 11:35:29;;;;;;;5.35;3.33;;;24.20;71.00;;;;;;4936846;29;20099;-69
2023/05/03 11:37:55;;;;;;;4.35;3.10;;;24.80;67.70;;;;;;4926961;29;20032;-71
2023/05/03 11:40:21;;;;;;;4.65;2.90;;;25.60;64.80;;;;;;4934430;29;20046;-71
2023/05/03 11:42:52;;;;;;;5.85;3.03;;;26.20;64.00;;;;;;4945854;29;20032;-70
2023/05/03 11:45:23;;;;;;;5.15;3.20;;;27.00;63.50;;;;;;4946251;29;20087;-69
2023/05/03 11:47:50;;;;;;;6.03;3.10;;;28.10;63.90;;;;;;4945687;29;20044;-69
2023/05/03 11:50:16;;;;;;;4.72;3.13;;;29.00;61.90;;;;;;4945856;29;20304;-68
2023/05/03 11:52:42;;;;;;;4.55;2.85;;;28.40;60.70;;;;;;4946160;29;20035;-70
2023/05/03 11:55:09;;;;;;;4.38;3.40;;;27.20;61.70;;;;;;4928339;29;20389;-69
2023/05/03 11:57:37;;;;;;;6.57;3.50;;;26.10;63.10;;;;;;4932210;29;20047;-70
2023/05/03 12:00:15;;;;;;;5.05;3.30;;;25.00;65.60;;;;;;4926305;29;20044;-70
2023/05/03 12:02:42;;;;;;;;;;;24.20;68.10;;;;;;4927283;29;20063;-69
2023/05/03 12:05:08;;;;;;;5.45;3.40;;;23.50;68.60;;;;;;4926449;29;19922;-69
2023/05/03 12:07:36;;;;;;;4.60;3.10;;;22.70;69.70;;;;;;4926594;29;20040;-68
2023/05/03 12:10:16;;;;;;;5.85;3.33;;;22.80;70.70;;;;;;4932871;29;20250;-69
2023/05/03 12:12:55;;;;;;;4.18;3.05;;;24.10;68.20;;;;;;4930794;29;20341;-70
2023/05/03 12:15:36;;;;;;;3.88;2.80;;;25.50;64.30;;;;;;4930871;29;20329;-70
2023/05/03 12:18:05;;;;;;;4.97;3.00;;;26.40;62.80;;;;;;4909462;29;20032;-70
2023/05/03 12:20:31;;;;;;;3.67;2.63;;;26.30;61.90;;;;;;4926602;29;20266;-70
2023/05/03 12:23:04;;;;;;;4.88;2.45;;;25.50;61.50;;;;;;4925986;29;20036;-70
2023/05/03 12:25:33;;;;;;;3.53;2.55;;;24.80;63.30;;;;;;4926614;29;20055;-69
2023/05/03 12:28:04;;;;;;;5.93;2.63;;;25.20;63.70;;;;;;4926152;29;20043;-68
2023/05/03 12:30:31;;;;;;;4.68;2.95;;;25.80;61.60;;;;;;4926677;29;20051;-71
2023/05/03 12:32:57;;;;;;;4.78;2.58;;;26.50;60.90;;;;;;4942972;29;20015;-70
2023/05/03 12:35:24;;;;;;;3.65;2.40;;;27.70;59.00;;;;;;4935607;29;20036;-71
2023/05/03 12:37:50;;;;;;;3.58;2.55;;;29.00;58.20;;;;;;4908966;29;20191;-73
2023/05/03 12:40:18;;;;;;;4.00;2.53;;;30.10;56.10;;;;;;4926221;29;20059;-72
2023/05/03 12:42:44;;;;;;;;;;;31.60;54.30;;;;;;4943367;29;20036;-71
2023/05/03 12:45:13;;;;;;;3.80;2.20;;;31.50;52.90;;;;;;4945045;29;20233;-70
2023/05/03 12:47:39;;;;;;;3.83;2.70;;;32.00;52.60;;;;;;4945198;29;20039;-73
2023/05/03 12:50:06;;;;;;;2.67;1.80;;;31.60;51.80;;;;;;4944902;29;20217;-71
2023/05/03 12:52:32;;;;;;;3.53;1.90;;;33.20;52.00;;;;;;4945188;29;20046;-74
2023/05/03 12:54:58;;;;;;;3.22;2.45;;;33.80;51.20;;;;;;4945101;29;20031;-70
2023/05/03 12:57:24;;;;;;;5.50;2.50;;;33.50;50.50;;;;;;4932517;29;20195;-70
2023/05/03 12:59:52;;;;;;;3.28;2.40;;;32.70;51.20;;;;;;4925958;29;20087;-70
2023/05/03 13:02:18;;;;;;;;;;;31.80;51.40;;;;;;4926188;29;20373;-71
2023/05/03 13:04:44;;;;;;;3.50;2.00;;;31.30;51.10;;;;;;4926184;29;19914;-71
2023/05/03 13:07:13;;;;;;;3.65;2.40;;;32.00;51.50;;;;;;4925518;29;20044;-71
2023/05/03 13:09:39;;;;;;;4.55;2.00;;;33.00;50.40;;;;;;4929525;29;20035;-69
2023/05/03 13:12:05;;;;;;;3.38;2.13;;;34.10;48.90;;;;;;4917583;29;20137;-71
2023/05/03 13:14:31;;;;;;;3.47;2.20;;;34.90;47.60;;;;;;4930119;29;20107;-71
2023/05/03 13:16:59;;;;;;;3.45;2.20;;;35.30;48.00;;;;;;4925399;29;20036;-70
2023/05/03 13:19:25;;;;;;;4.20;1.70;;;35.60;46.60;;;;;;4928270;29;20012;-72
2023/05/03 13:21:51;;;;;;;2.97;2.00;;;;;;;;;;4933373;29;20310;-70
2023/05/03 13:24:17;;;;;;;3.30;1.92;;;36.70;46.20;;;;;;4916456;29;20072;-70
2023/05/03 13:26:42;;;;;;;2.33;1.70;;;37.10;45.80;;;;;;4926125;29;20250;-72
2023/05/03 13:29:08;;;;;;;4.25;1.88;;;37.40;45.10;;;;;;4926666;29;20083;-71
2023/05/03 13:31:34;;;;;;;3.08;1.90;;;37.80;44.80;;;;;;4926101;29;20056;-73
2023/05/03 13:33:59;;;;;;;5.88;1.77;;;38.10;44.50;;;;;;4936928;29;20036;-72
2023/05/03 13:36:26;;;;;;;4.05;1.67;;;37.80;44.40;;;;;;4926529;29;20040;-70
2023/05/03 13:38:52;;;;;;;3.90;2.10;;;37.00;44.00;;;;;;4925790;29;20059;-70
2023/05/03 13:41:19;;;;;;;5.03;2.28;;;33.60;45.50;;;;;;4930633;29;20075;-69
2023/05/03 13:43:46;;;;;;;3.42;2.05;;;31.30;47.50;;;;;;4945043;29;20040;-74
2023/05/03 13:46:12;;;;;;;2.75;1.73;;;29.60;49.00;;;;;;4944874;29;20027;-73
2023/05/03 13:48:38;;;;;;;3.58;1.80;;;28.80;49.80;;;;;;4945033;29;20032;-73
2023/05/03 13:51:08;;;;;;;2.85;1.85;;;29.20;53.10;;;;;;4942347;29;20345;-70
2023/05/03 13:53:34;;;;;;;4.80;2.25;;;31.50;48.40;;;;;;4948436;29;20051;-71
2023/05/03 13:56:01;;;;;;;2.80;1.60;;;33.70;47.00;;;;;;4947454;29;20047;-69
2023/05/03 13:58:26;;;;;;;4.03;1.90;;;35.20;44.30;;;;;;4948354;29;20075;-69
2023/05/03 14:00:52;;;;;;;4.57;2.17;;;36.20;43.70;;;;;;4947574;29;20043;-71
2023/05/03 14:03:18;;;;;;;3.70;1.95;;;36.40;43.20;;;;;;4931085;29;20087;-71
2023/05/03 14:05:43;;;;;;;4.57;1.73;;;36.10;43.00;;;;;;4948106;29;20035;-71
2023/05/03 14:08:09;;;;;;;3.00;1.45;;;35.70;44.30;;;;;;4947397;29;20108;-70
2023/05/03 14:10:39;;;;;;;2.00;1.20;;;37.10;43.50;;;;;;4937449;29;20034;-70
2023/05/03 14:13:06;;;;;;;1.88;1.40;;;38.40;42.70;;;;;;4928457;29;20369;-70
2023/05/03 14:15:36;;;;;;;2.42;1.30;;;39.30;51.50;;;;;;4933513;29;20027;-71
2023/05/03 14:18:02;;;;;;;3.08;1.40;;;38.30;53.60;;;;;;4928737;29;20043;-71
2023/05/03 14:20:28;;;;;;;4.15;1.40;;;35.10;53.30;;;;;;4928453;29;20243;-72
2023/05/03 14:22:54;;;;;;;2.65;1.20;;;34.00;52.50;;;;;;4928018;29;20040;-71
2023/05/03 14:25:19;;;;;;;2.40;1.58;;;34.50;51.10;;;;;;4912040;29;20020;-71
2023/05/03 14:27:45;;;;;;;2.83;1.40;;;35.60;50.30;;;;;;4929065;29;20194;-72
2023/05/03 14:30:11;;;;;;;2.58;1.27;;;35.60;51.10;;;;;;4928756;29;20036;-71
2023/05/03 14:32:37;;;;;;;2.30;1.38;;;36.40;49.50;;;;;;4928916;29;20031;-70
2023/05/03 14:35:03;;;;;;;4.75;1.33;;;37.50;49.00;;;;;;4940096;29;20032;-71
2023/05/03 14:37:29;;;;;;;3.85;1.50;;;37.50;47.70;;;;;;4928511;29;20035;-71
2023/05/03 14:39:55;;;;;;;3.72;1.65;;;38.20;48.70;;;;;;4928016;29;20071;-70
2023/05/03 14:42:21;;;;;;;2.40;1.42;;;38.10;47.40;;;;;;4941489;29;20035;-71
2023/05/03 14:44:47;;;;;;;3.80;1.50;;;38.30;47.40;;;;;;4946958;29;20063;-70
2023/05/03 14:47:12;;;;;;;4.15;1.52;;;38.20;47.10;;;;;;4947419;29;20329;-70
2023/05/03 14:49:40;;;;;;;4.07;1.77;;;37.50;46.60;;;;;;4947425;29;20027;-71
2023/05/03 14:52:07;;;;;;;3.92;1.60;;;37.10;47.30;;;;;;4947316;29;20047;-71
2023/05/03 14:54:34;;;;;;;3.40;1.75;;;36.80;47.80;;;;;;4947369;29;20047;-71
2023/05/03 14:57:00;;;;;;;2.83;1.48;;;36.20;47.90;;;;;;4946915;29;20058;-70
2023/05/03 14:59:26;;;;;;;3.85;1.48;;;37.20;47.40;;;;;;4947341;29;20051;-72
2023/05/03 15:01:52;;;;;;;3.42;1.25;;;38.10;47.40;;;;;;4946173;29;20063;-76
2023/05/03 15:04:19;;;;;;;3.42;1.70;;;37.90;45.60;;;;;;4946712;29;20087;-74
2023/05/03 15:06:44;;;;;;;2.20;1.20;;;38.20;45.50;;;;;;4947266;29;20036;-73
2023/05/03 15:09:11;;;;;;;2.60;1.20;;;38.50;45.30;;;;;;4946173;29;20032;-74
2023/05/03 15:11:38;;;;;;;3.85;1.40;;;39.00;46.30;;;;;;4911019;29;20160;-73
2023/05/03 15:14:04;;;;;;;3.75;1.48;;;39.70;44.50;;;;;;4930870;29;20036;-73
2023/05/03 15:16:30;;;;;;;2.90;1.40;;;36.90;47.20;;;;;;4927972;29;20047;-72
2023/05/03 15:18:56;;;;;;;3.25;1.77;;;34.60;47.80;;;;;;4927470;29;20091;-71
2023/05/03 15:21:22;;;;;;;2.33;1.42;;;34.60;51.20;;;;;;4928088;29;20060;-73
2023/05/03 15:23:48;;;;;;;2.40;1.33;;;35.70;47.80;;;;;;4930395;29;20043;-73
2023/05/03 15:26:14;;;;;;;2.67;1.25;;;36.90;46.90;;;;;;4927504;29;20333;-73
2023/05/03 15:28:40;;;;;;;1.98;1.25;;;37.50;47.30;;;;;;4927456;29;20095;-73
2023/05/03 15:31:06;;;;;;;2.28;1.30;;;37.60;46.30;;;;;;4927179;29;20107;-74
2023/05/03 15:33:42;;;;;;;1.95;1.30;;;37.70;47.60;;;;;;4936430;29;20037;-73
2023/05/03 15:36:10;;;;;;;3.08;1.20;;;37.80;47.80;;;;;;4929970;29;20099;-73
2023/05/03 15:38:36;;;;;;;1.85;1.10;;;37.40;41.60;;;;;;4927621;29;20036;-74
2023/05/03 15:41:03;;;;;;;2.90;1.42;;;37.50;41.50;;;;;;4926980;29;20067;-72
2023/05/03 15:43:29;;;;;;;2.93;1.17;;;37.80;40.90;;;;;;4927615;29;20091;-73
2023/05/03 15:45:55;;;;;;;2.33;1.02;;;37.70;41.00;;;;;;4928611;29;20233;-73
2023/05/03 15:48:20;;;;;;;2.50;1.40;;;37.30;41.20;;;;;;4946290;29;20031;-73
2023/05/03 15:50:46;;;;;;;2.92;1.20;;;38.00;40.10;;;;;;4945972;29;20028;-74
2023/05/03 15:53:13;;;;;;;2.25;1.20;;;38.00;39.30;;;;;;4946300;29;20039;-72
2023/05/03 15:55:38;;;;;;;2.63;1.27;;;37.50;40.60;;;;;;4946061;29;20037;-72
2023/05/03 15:58:06;;;;;;;2.50;1.27;;;37.40;39.50;;;;;;4945693;29;20031;-73
2023/05/03 16:00:33;;;;;;;2.10;1.10;;;36.40;41.00;;;;;;4946024;29;20027;-73
2023/05/03 16:02:58;;;;;;;2.90;1.40;;;36.60;41.50;;;;;;4945372;29;20393;-73
2023/05/03 16:05:24;;;;;;;2.30;1.02;;;37.20;41.60;;;;;;4945716;29;20055;-72
2023/05/03 16:07:50;;;;;;;4.65;2.20;;;37.60;40.80;;;;;;4945092;29;20047;-73
2023/05/03 16:10:16;;;;;;;2.22;1.40;;;37.40;41.00;;;;;;4937295;29;20043;-72
2023/05/03 16:12:43;;;;;;;3.60;1.10;;;37.10;40.80;;;;;;4927016;29;20036;-73
2023/05/03 16:15:09;;;;;;;2.42;1.40;;;36.80;41.70;;;;;;4929722;29;20392;-73
2023/05/03 16:17:35;;;;;;;2.00;1.27;;;36.60;41.60;;;;;;4926551;29;20036;-73
2023/05/03 16:20:12;;;;;;;2.53;0.93;;;37.60;42.40;;;;;;4934125;29;20091;-73
2023/05/03 16:22:38;;;;;;;2.17;1.05;;;38.80;41.10;;;;;;4931595;29;20160;-72
2023/05/03 16:25:11;;;;;;;2.22;0.98;;;38.70;41.50;;;;;;4926870;29;20040;-72
2023/05/03 16:27:40;;;;;;;2.50;1.20;;;38.20;42.20;;;;;;4927063;29;20032;-73
2023/05/03 16:30:07;;;;;;;3.15;1.20;;;38.00;39.00;;;;;;4926587;29;20035;-73
2023/05/03 16:32:34;;;;;;;1.98;1.10;;;38.10;40.80;;;;;;4926422;29;20237;-74
2023/05/03 16:35:02;;;;;;;3.17;1.30;;;36.40;39.70;;;;;;4937429;29;20088;-73
2023/05/03 16:37:31;;;;;;;2.05;1.20;;;36.00;41.60;;;;;;4926846;29;20066;-73
2023/05/03 16:39:58;;;;;;;2.67;1.20;;;35.80;41.50;;;;;;4926203;29;20393;-74
2023/05/03 16:42:24;;;;;;;1.95;1.33;;;36.20;41.80;;;;;;4926583;29;20044;-73
2023/05/03 16:44:49;;;;;;;2.40;1.25;;;36.10;41.20;;;;;;4926487;29;20047;-74
2023/05/03 16:47:15;;;;;;;1.75;0.90;;;35.90;42.20;;;;;;4939182;29;20293;-74
2023/05/03 16:49:41;;;;;;;1.85;1.05;;;35.50;43.20;;;;;;4945332;29;20035;-74
2023/05/03 16:52:08;;;;;;;2.60;1.50;;;34.00;43.30;;;;;;4946095;29;20035;-73
2023/05/03 16:54:34;;;;;;;2.45;1.40;;;32.60;42.30;;;;;;4945595;29;20286;-72
2023/05/03 16:57:01;;;;;;;2.08;1.30;;;30.30;42.60;;;;;;4944864;29;20039;-73
2023/05/03 16:59:28;;;;;;;2.67;1.40;;;;;;;;;;4945639;29;20044;-73
2023/05/03 17:01:53;;;;;;;5.38;1.33;;;28.10;54.40;;;;;;4944538;29;20310;-73
2023/05/03 17:04:19;;;;;;;2.60;1.50;;;26.90;53.50;;;;;;4945653;29;20027;-75
2023/05/03 17:06:46;;;;;;;3.22;1.48;;;26.10;65.80;;;;;;4945352;29;20054;-75
2023/05/03 17:09:12;;;;;;;2.50;1.60;;;25.70;57.90;;;;;;4944796;29;20019;-74
2023/05/03 17:11:38;;;;;;;2.50;1.50;;;25.70;68.00;;;;;;4926598;29;20365;-74
2023/05/03 17:14:04;;;;;;;3.30;1.27;;;25.80;65.40;;;;;;4929824;29;20012;-73
2023/05/03 17:16:30;;;;;;;2.92;1.45;;;25.80;69.80;;;;;;4926538;29;20055;-74
2023/05/03 17:18:56;;;;;;;2.70;1.50;;;25.70;71.00;;;;;;4926141;29;20088;-74
2023/05/03 17:21:23;;;;;;;3.92;1.60;;;;;;;;;;4925998;29;20117;-72
2023/05/03 17:23:49;;;;;;;3.20;1.70;;;25.30;79.50;;;;;;4926493;29;20016;-73
2023/05/03 17:26:20;;;;;;;2.60;1.42;;;25.20;74.20;;;;;;4926749;29;20041;-72
2023/05/03 17:28:47;;;;;;;3.35;1.80;;;;;;;;;;4929918;29;20040;-73
2023/05/03 17:31:12;;;;;;;2.92;1.52;;;24.50;52.90;;;;;;4915669;29;20262;-74
2023/05/03 17:33:38;;;;;;;3.47;1.80;;;24.40;54.40;;;;;;4947427;29;20038;-73
2023/05/03 17:36:04;;;;;;;3.30;1.77;;;24.60;53.00;;;;;;4934420;29;20024;-73
2023/05/03 17:38:33;;;;;;;3.53;1.85;;;24.70;53.60;;;;;;4938325;29;20275;-71
2023/05/03 17:41:06;;;;;;;3.35;1.70;;;24.90;53.60;;;;;;4929450;29;20067;-74
2023/05/03 17:43:33;;;;;;;3.22;1.60;;;25.80;51.00;;;;;;4929522;29;20044;-72
2023/05/03 17:46:10;;;;;;;2.70;1.60;;;26.50;52.00;;;;;;4931526;29;20043;-72
2023/05/03 17:48:43;;;;;;;3.55;1.77;;;26.30;52.90;;;;;;4948752;29;20032;-72